sensor_id;sensor_type;location;lat;lon;timestamp;P1;durP1;ratioP1;P2;durP2;ratioP2
57593;SDS011;43423;46.510;6.686;2023-03-23T00:02:22;5.65;;;3.10;;
57593;SDS011;43423;46.510;6.686;2023-03-23T00:04:58;5.05;;;2.60;;
57593;SDS011;43423;46.510;6.686;2023-03-23T00:07:25;4.60;;;2.63;;
57593;SDS011;43423;46.510;6.686;2023-03-23T00:09:53;5.90;;;3.03;;
57593;SDS011;43423;46.510;6.686;2023-03-23T00:12:23;7.20;;;3.13;;
57593;SDS011;43423;46.510;6.686;2023-03-23T00:14:54;7.40;;;3.67;;
57593;SDS011;43423;46.510;6.686;2023-03-23T00:17:20;6.57;;;3.17;;
57593;SDS011;43423;46.510;6.686;2023-03-23T00:19:46;7.00;;;3.45;;
57593;SDS011;43423;46.510;6.686;2023-03-23T00:22:15;7.30;;;3.28;;
57593;SDS011;43423;46.510;6.686;2023-03-23T00:24:47;5.43;;;3.40;;
57593;SDS011;43423;46.510;6.686;2023-03-23T00:27:13;10.88;;;3.40;;
57593;SDS011;43423;46.510;6.686;2023-03-23T00:29:40;7.15;;;2.55;;
57593;SDS011;43423;46.510;6.686;2023-03-23T00:32:07;6.93;;;3.38;;
57593;SDS011;43423;46.510;6.686;2023-03-23T00:34:38;5.65;;;3.58;;
57593;SDS011;43423;46.510;6.686;2023-03-23T00:37:06;6.90;;;3.17;;
57593;SDS011;43423;46.510;6.686;2023-03-23T00:39:33;4.82;;;3.53;;
57593;SDS011;43423;46.510;6.686;2023-03-23T00:42:01;5.88;;;3.33;;
57593;SDS011;43423;46.510;6.686;2023-03-23T00:44:28;7.90;;;3.75;;
57593;SDS011;43423;46.510;6.686;2023-03-23T00:46:55;6.47;;;3.28;;
57593;SDS011;43423;46.510;6.686;2023-03-23T00:49:22;5.88;;;3.00;;
57593;SDS011;43423;46.510;6.686;2023-03-23T00:51:50;6.40;;;3.13;;
57593;SDS011;43423;46.510;6.686;2023-03-23T00:54:21;5.47;;;3.00;;
57593;SDS011;43423;46.510;6.686;2023-03-23T00:56:47;7.20;;;2.90;;
57593;SDS011;43423;46.510;6.686;2023-03-23T00:59:13;5.93;;;3.00;;
57593;SDS011;43423;46.510;6.686;2023-03-23T01:01:39;6.50;;;3.55;;
57593;SDS011;43423;46.510;6.686;2023-03-23T01:04:06;14.07;;;4.20;;
57593;SDS011;43423;46.510;6.686;2023-03-23T01:06:33;6.22;;;2.92;;
57593;SDS011;43423;46.510;6.686;2023-03-23T01:09:01;7.05;;;2.75;;
57593;SDS011;43423;46.510;6.686;2023-03-23T01:11:27;7.40;;;3.35;;
57593;SDS011;43423;46.510;6.686;2023-03-23T01:13:53;9.30;;;3.35;;
57593;SDS011;43423;46.510;6.686;2023-03-23T01:16:19;6.82;;;3.10;;
57593;SDS011;43423;46.510;6.686;2023-03-23T01:18:45;8.32;;;3.45;;
57593;SDS011;43423;46.510;6.686;2023-03-23T01:21:13;5.47;;;3.50;;
57593;SDS011;43423;46.510;6.686;2023-03-23T01:23:40;5.28;;;3.08;;
57593;SDS011;43423;46.510;6.686;2023-03-23T01:26:07;8.02;;;3.28;;
57593;SDS011;43423;46.510;6.686;2023-03-23T01:28:41;8.00;;;3.30;;
57593;SDS011;43423;46.510;6.686;2023-03-23T01:31:08;11.52;;;3.17;;
57593;SDS011;43423;46.510;6.686;2023-03-23T01:33:37;5.60;;;3.15;;
57593;SDS011;43423;46.510;6.686;2023-03-23T01:36:05;8.68;;;3.00;;
57593;SDS011;43423;46.510;6.686;2023-03-23T01:38:35;6.82;;;3.15;;
57593;SDS011;43423;46.510;6.686;2023-03-23T01:41:01;6.40;;;3.00;;
57593;SDS011;43423;46.510;6.686;2023-03-23T01:43:27;8.00;;;3.03;;
57593;SDS011;43423;46.510;6.686;2023-03-23T01:45:52;6.18;;;3.13;;
57593;SDS011;43423;46.510;6.686;2023-03-23T01:51:11;5.50;;;3.00;;
57593;SDS011;43423;46.510;6.686;2023-03-23T01:53:45;6.37;;;3.10;;
57593;SDS011;43423;46.510;6.686;2023-03-23T01:56:14;5.55;;;3.13;;
57593;SDS011;43423;46.510;6.686;2023-03-23T01:58:44;8.10;;;3.35;;
57593;SDS011;43423;46.510;6.686;2023-03-23T02:01:12;5.22;;;3.15;;
57593;SDS011;43423;46.510;6.686;2023-03-23T02:03:41;7.43;;;3.40;;
57593;SDS011;43423;46.510;6.686;2023-03-23T02:06:09;9.50;;;3.40;;
57593;SDS011;43423;46.510;6.686;2023-03-23T02:08:34;4.97;;;3.30;;
57593;SDS011;43423;46.510;6.686;2023-03-23T02:11:01;7.50;;;3.45;;
57593;SDS011;43423;46.510;6.686;2023-03-23T02:13:27;8.95;;;3.38;;
57593;SDS011;43423;46.510;6.686;2023-03-23T02:16:12;9.02;;;3.53;;
57593;SDS011;43423;46.510;6.686;2023-03-23T02:32:32;5.45;;;2.90;;
57593;SDS011;43423;46.510;6.686;2023-03-23T02:35:24;7.80;;;3.20;;
57593;SDS011;43423;46.510;6.686;2023-03-23T02:38:04;8.50;;;3.05;;
57593;SDS011;43423;46.510;6.686;2023-03-23T02:40:44;6.15;;;3.28;;
57593;SDS011;43423;46.510;6.686;2023-03-23T02:43:17;6.93;;;3.33;;
57593;SDS011;43423;46.510;6.686;2023-03-23T02:45:46;10.40;;;3.88;;
57593;SDS011;43423;46.510;6.686;2023-03-23T02:48:14;8.50;;;3.28;;
57593;SDS011;43423;46.510;6.686;2023-03-23T02:50:45;6.30;;;3.25;;
57593;SDS011;43423;46.510;6.686;2023-03-23T02:53:13;6.43;;;3.80;;
57593;SDS011;43423;46.510;6.686;2023-03-23T02:55:42;8.47;;;3.70;;
57593;SDS011;43423;46.510;6.686;2023-03-23T02:58:09;5.97;;;3.25;;
57593;SDS011;43423;46.510;6.686;2023-03-23T03:00:36;5.57;;;3.20;;
57593;SDS011;43423;46.510;6.686;2023-03-23T03:03:02;7.07;;;3.80;;
57593;SDS011;43423;46.510;6.686;2023-03-23T03:05:35;7.65;;;3.92;;
57593;SDS011;43423;46.510;6.686;2023-03-23T03:10:54;7.38;;;3.67;;
57593;SDS011;43423;46.510;6.686;2023-03-23T03:19:03;9.80;;;3.90;;
57593;SDS011;43423;46.510;6.686;2023-03-23T03:21:35;8.18;;;3.72;;
57593;SDS011;43423;46.510;6.686;2023-03-23T03:24:03;10.15;;;3.80;;
57593;SDS011;43423;46.510;6.686;2023-03-23T03:26:37;7.88;;;3.70;;
57593;SDS011;43423;46.510;6.686;2023-03-23T03:29:06;10.30;;;3.63;;
57593;SDS011;43423;46.510;6.686;2023-03-23T03:31:34;6.57;;;3.80;;
57593;SDS011;43423;46.510;6.686;2023-03-23T03:34:04;6.35;;;3.90;;
57593;SDS011;43423;46.510;6.686;2023-03-23T03:36:30;9.13;;;3.65;;
57593;SDS011;43423;46.510;6.686;2023-03-23T03:39:09;10.23;;;3.75;;
57593;SDS011;43423;46.510;6.686;2023-03-23T03:41:36;6.10;;;3.33;;
57593;SDS011;43423;46.510;6.686;2023-03-23T03:44:03;9.13;;;4.25;;
57593;SDS011;43423;46.510;6.686;2023-03-23T03:46:29;5.30;;;3.92;;
57593;SDS011;43423;46.510;6.686;2023-03-23T03:48:59;6.55;;;3.67;;
57593;SDS011;43423;46.510;6.686;2023-03-23T03:51:26;8.13;;;3.38;;
57593;SDS011;43423;46.510;6.686;2023-03-23T03:53:53;7.28;;;3.85;;
57593;SDS011;43423;46.510;6.686;2023-03-23T03:56:19;6.93;;;3.72;;
57593;SDS011;43423;46.510;6.686;2023-03-23T03:58:45;7.82;;;3.47;;
57593;SDS011;43423;46.510;6.686;2023-03-23T04:01:11;7.35;;;3.67;;
57593;SDS011;43423;46.510;6.686;2023-03-23T04:03:37;12.25;;;3.67;;
57593;SDS011;43423;46.510;6.686;2023-03-23T04:06:03;9.43;;;3.60;;
57593;SDS011;43423;46.510;6.686;2023-03-23T04:08:29;6.85;;;4.18;;
57593;SDS011;43423;46.510;6.686;2023-03-23T04:10:55;7.53;;;3.65;;
57593;SDS011;43423;46.510;6.686;2023-03-23T04:13:21;7.38;;;3.72;;
57593;SDS011;43423;46.510;6.686;2023-03-23T04:15:47;8.13;;;3.58;;
57593;SDS011;43423;46.510;6.686;2023-03-23T04:18:14;6.30;;;3.22;;
57593;SDS011;43423;46.510;6.686;2023-03-23T04:20:43;9.20;;;3.75;;
57593;SDS011;43423;46.510;6.686;2023-03-23T04:23:10;8.30;;;3.28;;
57593;SDS011;43423;46.510;6.686;2023-03-23T04:25:36;8.10;;;3.33;;
57593;SDS011;43423;46.510;6.686;2023-03-23T04:28:01;8.57;;;3.60;;
57593;SDS011;43423;46.510;6.686;2023-03-23T04:30:27;7.53;;;3.72;;
57593;SDS011;43423;46.510;6.686;2023-03-23T04:32:54;7.53;;;3.88;;
57593;SDS011;43423;46.510;6.686;2023-03-23T04:35:21;11.13;;;3.72;;
57593;SDS011;43423;46.510;6.686;2023-03-23T04:37:51;6.55;;;3.22;;
57593;SDS011;43423;46.510;6.686;2023-03-23T04:40:18;6.07;;;3.10;;
57593;SDS011;43423;46.510;6.686;2023-03-23T04:42:44;5.07;;;3.10;;
57593;SDS011;43423;46.510;6.686;2023-03-23T04:45:15;5.78;;;3.45;;
57593;SDS011;43423;46.510;6.686;2023-03-23T04:47:50;9.30;;;3.90;;
57593;SDS011;43423;46.510;6.686;2023-03-23T04:50:24;7.45;;;3.58;;
57593;SDS011;43423;46.510;6.686;2023-03-23T04:52:52;7.93;;;3.80;;
57593;SDS011;43423;46.510;6.686;2023-03-23T04:55:19;5.68;;;3.58;;
57593;SDS011;43423;46.510;6.686;2023-03-23T04:57:46;8.32;;;3.42;;
57593;SDS011;43423;46.510;6.686;2023-03-23T05:00:13;6.10;;;3.38;;
57593;SDS011;43423;46.510;6.686;2023-03-23T05:02:41;8.32;;;3.67;;
57593;SDS011;43423;46.510;6.686;2023-03-23T05:05:09;5.97;;;3.40;;
57593;SDS011;43423;46.510;6.686;2023-03-23T05:07:40;10.27;;;4.47;;
57593;SDS011;43423;46.510;6.686;2023-03-23T05:10:08;7.25;;;3.38;;
57593;SDS011;43423;46.510;6.686;2023-03-23T05:12:35;11.25;;;3.88;;
57593;SDS011;43423;46.510;6.686;2023-03-23T05:15:01;7.88;;;3.95;;
57593;SDS011;43423;46.510;6.686;2023-03-23T05:17:27;8.95;;;3.72;;
57593;SDS011;43423;46.510;6.686;2023-03-23T05:19:55;9.75;;;4.40;;
57593;SDS011;43423;46.510;6.686;2023-03-23T05:22:22;7.40;;;3.20;;
57593;SDS011;43423;46.510;6.686;2023-03-23T05:24:47;7.93;;;3.70;;
57593;SDS011;43423;46.510;6.686;2023-03-23T05:27:13;8.18;;;3.70;;
57593;SDS011;43423;46.510;6.686;2023-03-23T05:29:40;6.85;;;3.72;;
57593;SDS011;43423;46.510;6.686;2023-03-23T05:32:08;7.45;;;3.80;;
57593;SDS011;43423;46.510;6.686;2023-03-23T05:34:34;7.53;;;3.30;;
57593;SDS011;43423;46.510;6.686;2023-03-23T05:37:00;8.15;;;4.60;;
57593;SDS011;43423;46.510;6.686;2023-03-23T05:39:28;11.05;;;3.45;;
57593;SDS011;43423;46.510;6.686;2023-03-23T05:41:54;9.23;;;3.65;;
57593;SDS011;43423;46.510;6.686;2023-03-23T05:44:20;9.25;;;3.40;;
57593;SDS011;43423;46.510;6.686;2023-03-23T05:46:46;6.80;;;3.45;;
57593;SDS011;43423;46.510;6.686;2023-03-23T05:49:12;6.53;;;3.60;;
57593;SDS011;43423;46.510;6.686;2023-03-23T05:51:41;5.78;;;3.08;;
57593;SDS011;43423;46.510;6.686;2023-03-23T05:54:07;9.38;;;3.15;;
57593;SDS011;43423;46.510;6.686;2023-03-23T05:56:33;5.45;;;3.00;;
57593;SDS011;43423;46.510;6.686;2023-03-23T05:58:59;7.35;;;3.28;;
57593;SDS011;43423;46.510;6.686;2023-03-23T06:01:25;5.28;;;3.08;;
57593;SDS011;43423;46.510;6.686;2023-03-23T06:03:51;6.55;;;3.10;;
57593;SDS011;43423;46.510;6.686;2023-03-23T06:06:21;5.72;;;3.22;;
57593;SDS011;43423;46.510;6.686;2023-03-23T06:08:47;7.53;;;3.78;;
57593;SDS011;43423;46.510;6.686;2023-03-23T06:11:15;9.52;;;3.40;;
57593;SDS011;43423;46.510;6.686;2023-03-23T06:13:41;4.82;;;2.95;;
57593;SDS011;43423;46.510;6.686;2023-03-23T06:16:07;7.10;;;3.30;;
57593;SDS011;43423;46.510;6.686;2023-03-23T06:18:34;5.30;;;3.63;;
57593;SDS011;43423;46.510;6.686;2023-03-23T06:21:02;6.10;;;2.92;;
57593;SDS011;43423;46.510;6.686;2023-03-23T06:23:29;5.13;;;2.85;;
57593;SDS011;43423;46.510;6.686;2023-03-23T06:25:59;8.82;;;2.90;;
57593;SDS011;43423;46.510;6.686;2023-03-23T06:28:27;6.72;;;3.92;;
57593;SDS011;43423;46.510;6.686;2023-03-23T06:30:53;5.95;;;3.05;;
57593;SDS011;43423;46.510;6.686;2023-03-23T06:33:19;6.30;;;3.53;;
57593;SDS011;43423;46.510;6.686;2023-03-23T06:35:44;8.43;;;3.00;;
57593;SDS011;43423;46.510;6.686;2023-03-23T06:38:10;6.85;;;2.70;;
57593;SDS011;43423;46.510;6.686;2023-03-23T06:40:36;7.40;;;2.90;;
57593;SDS011;43423;46.510;6.686;2023-03-23T06:43:02;4.57;;;2.75;;
57593;SDS011;43423;46.510;6.686;2023-03-23T06:45:29;6.88;;;2.90;;
57593;SDS011;43423;46.510;6.686;2023-03-23T06:47:55;8.07;;;3.38;;
57593;SDS011;43423;46.510;6.686;2023-03-23T06:50:21;8.60;;;3.38;;
57593;SDS011;43423;46.510;6.686;2023-03-23T06:52:47;6.93;;;3.13;;
57593;SDS011;43423;46.510;6.686;2023-03-23T06:55:14;4.82;;;3.08;;
57593;SDS011;43423;46.510;6.686;2023-03-23T06:57:41;6.13;;;3.70;;
57593;SDS011;43423;46.510;6.686;2023-03-23T07:00:08;6.20;;;3.10;;
57593;SDS011;43423;46.510;6.686;2023-03-23T07:02:37;7.63;;;3.63;;
57593;SDS011;43423;46.510;6.686;2023-03-23T07:05:03;5.72;;;3.10;;
57593;SDS011;43423;46.510;6.686;2023-03-23T07:07:29;4.55;;;2.72;;
57593;SDS011;43423;46.510;6.686;2023-03-23T07:09:55;10.25;;;3.08;;
57593;SDS011;43423;46.510;6.686;2023-03-23T07:12:21;7.65;;;2.80;;
57593;SDS011;43423;46.510;6.686;2023-03-23T07:14:47;8.55;;;3.13;;
57593;SDS011;43423;46.510;6.686;2023-03-23T07:17:13;8.23;;;3.08;;
57593;SDS011;43423;46.510;6.686;2023-03-23T07:19:38;6.82;;;3.05;;
57593;SDS011;43423;46.510;6.686;2023-03-23T07:22:06;4.55;;;2.70;;
57593;SDS011;43423;46.510;6.686;2023-03-23T07:24:32;5.28;;;3.25;;
57593;SDS011;43423;46.510;6.686;2023-03-23T07:26:58;3.67;;;2.42;;
57593;SDS011;43423;46.510;6.686;2023-03-23T07:29:24;6.75;;;2.67;;
57593;SDS011;43423;46.510;6.686;2023-03-23T07:31:50;6.85;;;3.22;;
57593;SDS011;43423;46.510;6.686;2023-03-23T07:34:16;9.95;;;3.55;;
57593;SDS011;43423;46.510;6.686;2023-03-23T07:36:42;10.18;;;4.97;;
57593;SDS011;43423;46.510;6.686;2023-03-23T07:39:08;7.43;;;3.38;;
57593;SDS011;43423;46.510;6.686;2023-03-23T07:41:34;9.32;;;3.30;;
57593;SDS011;43423;46.510;6.686;2023-03-23T07:44:00;8.07;;;3.92;;
57593;SDS011;43423;46.510;6.686;2023-03-23T07:46:26;5.80;;;3.40;;
57593;SDS011;43423;46.510;6.686;2023-03-23T07:48:51;9.90;;;3.35;;
57593;SDS011;43423;46.510;6.686;2023-03-23T07:51:17;8.88;;;4.13;;
57593;SDS011;43423;46.510;6.686;2023-03-23T07:53:43;7.55;;;3.30;;
57593;SDS011;43423;46.510;6.686;2023-03-23T07:56:12;11.20;;;3.95;;
57593;SDS011;43423;46.510;6.686;2023-03-23T07:58:42;11.52;;;3.42;;
57593;SDS011;43423;46.510;6.686;2023-03-23T08:01:09;7.07;;;3.08;;
57593;SDS011;43423;46.510;6.686;2023-03-23T08:03:35;4.38;;;3.08;;
57593;SDS011;43423;46.510;6.686;2023-03-23T08:06:02;4.60;;;2.90;;
57593;SDS011;43423;46.510;6.686;2023-03-23T08:08:28;4.90;;;3.33;;
57593;SDS011;43423;46.510;6.686;2023-03-23T08:10:54;5.82;;;3.20;;
57593;SDS011;43423;46.510;6.686;2023-03-23T08:13:19;5.93;;;3.38;;
57593;SDS011;43423;46.510;6.686;2023-03-23T08:15:45;5.47;;;3.17;;
57593;SDS011;43423;46.510;6.686;2023-03-23T08:18:10;3.38;;;2.40;;
57593;SDS011;43423;46.510;6.686;2023-03-23T08:20:36;3.58;;;2.15;;
57593;SDS011;43423;46.510;6.686;2023-03-23T08:23:03;4.55;;;2.60;;
57593;SDS011;43423;46.510;6.686;2023-03-23T08:25:29;6.65;;;2.70;;
57593;SDS011;43423;46.510;6.686;2023-03-23T08:27:59;6.43;;;2.30;;
57593;SDS011;43423;46.510;6.686;2023-03-23T08:30:27;3.17;;;1.90;;
57593;SDS011;43423;46.510;6.686;2023-03-23T08:32:55;2.42;;;2.20;;
57593;SDS011;43423;46.510;6.686;2023-03-23T08:35:24;5.78;;;3.05;;
57593;SDS011;43423;46.510;6.686;2023-03-23T08:37:49;3.83;;;2.53;;
57593;SDS011;43423;46.510;6.686;2023-03-23T08:40:21;6.03;;;2.60;;
57593;SDS011;43423;46.510;6.686;2023-03-23T08:42:48;6.55;;;3.20;;
57593;SDS011;43423;46.510;6.686;2023-03-23T08:45:16;7.50;;;3.58;;
57593;SDS011;43423;46.510;6.686;2023-03-23T08:47:44;6.45;;;3.17;;
57593;SDS011;43423;46.510;6.686;2023-03-23T08:50:11;7.88;;;2.75;;
57593;SDS011;43423;46.510;6.686;2023-03-23T08:52:39;5.55;;;3.00;;
57593;SDS011;43423;46.510;6.686;2023-03-23T08:55:05;5.53;;;3.03;;
57593;SDS011;43423;46.510;6.686;2023-03-23T08:57:34;4.40;;;2.80;;
57593;SDS011;43423;46.510;6.686;2023-03-23T09:00:02;8.77;;;2.75;;
57593;SDS011;43423;46.510;6.686;2023-03-23T09:02:39;4.82;;;2.90;;
57593;SDS011;43423;46.510;6.686;2023-03-23T09:05:08;7.72;;;3.15;;
57593;SDS011;43423;46.510;6.686;2023-03-23T09:07:37;10.23;;;2.95;;
57593;SDS011;43423;46.510;6.686;2023-03-23T09:10:07;9.00;;;3.50;;
57593;SDS011;43423;46.510;6.686;2023-03-23T09:12:34;4.15;;;2.70;;
57593;SDS011;43423;46.510;6.686;2023-03-23T09:15:01;4.85;;;3.20;;
57593;SDS011;43423;46.510;6.686;2023-03-23T09:17:37;6.65;;;3.00;;
57593;SDS011;43423;46.510;6.686;2023-03-23T09:20:05;4.95;;;2.58;;
57593;SDS011;43423;46.510;6.686;2023-03-23T09:22:39;4.13;;;2.67;;
57593;SDS011;43423;46.510;6.686;2023-03-23T09:25:06;5.38;;;3.38;;
57593;SDS011;43423;46.510;6.686;2023-03-23T09:27:34;6.00;;;3.00;;
57593;SDS011;43423;46.510;6.686;2023-03-23T09:30:02;9.60;;;3.20;;
57593;SDS011;43423;46.510;6.686;2023-03-23T09:32:32;4.05;;;3.00;;
57593;SDS011;43423;46.510;6.686;2023-03-23T09:34:58;7.03;;;2.97;;
57593;SDS011;43423;46.510;6.686;2023-03-23T09:37:24;6.25;;;3.38;;
57593;SDS011;43423;46.510;6.686;2023-03-23T09:39:49;5.90;;;2.85;;
57593;SDS011;43423;46.510;6.686;2023-03-23T09:48:02;7.10;;;3.00;;
57593;SDS011;43423;46.510;6.686;2023-03-23T09:50:31;4.97;;;3.13;;
57593;SDS011;43423;46.510;6.686;2023-03-23T09:53:00;5.47;;;2.92;;
57593;SDS011;43423;46.510;6.686;2023-03-23T09:55:33;6.47;;;3.08;;
57593;SDS011;43423;46.510;6.686;2023-03-23T09:58:11;7.03;;;3.03;;
57593;SDS011;43423;46.510;6.686;2023-03-23T10:00:44;4.55;;;2.65;;
57593;SDS011;43423;46.510;6.686;2023-03-23T10:03:22;7.82;;;4.07;;
57593;SDS011;43423;46.510;6.686;2023-03-23T10:08:19;5.32;;;3.15;;
57593;SDS011;43423;46.510;6.686;2023-03-23T10:16:11;6.25;;;2.95;;
57593;SDS011;43423;46.510;6.686;2023-03-23T10:18:43;9.93;;;3.25;;
57593;SDS011;43423;46.510;6.686;2023-03-23T10:21:18;5.15;;;3.20;;
57593;SDS011;43423;46.510;6.686;2023-03-23T10:23:55;5.63;;;3.13;;
57593;SDS011;43423;46.510;6.686;2023-03-23T10:29:12;5.07;;;2.92;;
57593;SDS011;43423;46.510;6.686;2023-03-23T10:31:43;9.45;;;3.35;;
57593;SDS011;43423;46.510;6.686;2023-03-23T10:34:25;7.55;;;3.20;;
57593;SDS011;43423;46.510;6.686;2023-03-23T10:37:02;5.85;;;2.72;;
57593;SDS011;43423;46.510;6.686;2023-03-23T10:39:48;11.63;;;3.35;;
57593;SDS011;43423;46.510;6.686;2023-03-23T10:42:29;8.60;;;3.67;;
57593;SDS011;43423;46.510;6.686;2023-03-23T10:44:59;5.80;;;3.10;;
57593;SDS011;43423;46.510;6.686;2023-03-23T10:47:35;7.82;;;2.90;;
57593;SDS011;43423;46.510;6.686;2023-03-23T10:50:04;4.00;;;2.60;;
57593;SDS011;43423;46.510;6.686;2023-03-23T10:52:39;7.43;;;3.30;;
57593;SDS011;43423;46.510;6.686;2023-03-23T10:57:47;6.35;;;3.03;;
57593;SDS011;43423;46.510;6.686;2023-03-23T11:00:26;6.07;;;2.75;;
57593;SDS011;43423;46.510;6.686;2023-03-23T11:03:04;7.50;;;3.00;;
57593;SDS011;43423;46.510;6.686;2023-03-23T11:05:40;6.55;;;3.30;;
57593;SDS011;43423;46.510;6.686;2023-03-23T11:08:11;8.02;;;2.95;;
57593;SDS011;43423;46.510;6.686;2023-03-23T11:10:55;6.32;;;2.80;;
57593;SDS011;43423;46.510;6.686;2023-03-23T11:13:27;6.70;;;2.80;;
57593;SDS011;43423;46.510;6.686;2023-03-23T11:15:55;6.15;;;3.08;;
57593;SDS011;43423;46.510;6.686;2023-03-23T11:18:22;6.40;;;2.97;;
57593;SDS011;43423;46.510;6.686;2023-03-23T11:20:52;6.10;;;3.28;;
57593;SDS011;43423;46.510;6.686;2023-03-23T11:25:54;5.32;;;3.08;;
57593;SDS011;43423;46.510;6.686;2023-03-23T11:28:21;6.55;;;3.00;;
57593;SDS011;43423;46.510;6.686;2023-03-23T11:30:54;4.72;;;2.95;;
57593;SDS011;43423;46.510;6.686;2023-03-23T11:33:21;6.80;;;2.85;;
57593;SDS011;43423;46.510;6.686;2023-03-23T11:35:50;5.13;;;2.60;;
57593;SDS011;43423;46.510;6.686;2023-03-23T11:38:19;4.80;;;3.00;;
57593;SDS011;43423;46.510;6.686;2023-03-23T11:40:48;4.90;;;2.63;;
57593;SDS011;43423;46.510;6.686;2023-03-23T11:43:18;7.05;;;2.80;;
57593;SDS011;43423;46.510;6.686;2023-03-23T11:51:33;4.40;;;2.63;;
57593;SDS011;43423;46.510;6.686;2023-03-23T11:56:49;7.03;;;2.65;;
57593;SDS011;43423;46.510;6.686;2023-03-23T11:59:19;4.35;;;2.78;;
57593;SDS011;43423;46.510;6.686;2023-03-23T12:04:50;6.32;;;2.90;;
57593;SDS011;43423;46.510;6.686;2023-03-23T12:07:45;6.03;;;2.60;;
57593;SDS011;43423;46.510;6.686;2023-03-23T12:10:23;5.68;;;3.13;;
57593;SDS011;43423;46.510;6.686;2023-03-23T12:13:02;4.43;;;3.10;;
57593;SDS011;43423;46.510;6.686;2023-03-23T12:18:30;4.25;;;2.67;;
57593;SDS011;43423;46.510;6.686;2023-03-23T12:21:18;3.25;;;2.50;;
57593;SDS011;43423;46.510;6.686;2023-03-23T12:26:34;3.28;;;2.60;;
57593;SDS011;43423;46.510;6.686;2023-03-23T12:29:29;7.00;;;2.45;;
57593;SDS011;43423;46.510;6.686;2023-03-23T12:37:59;4.18;;;2.40;;
57593;SDS011;43423;46.510;6.686;2023-03-23T12:43:08;3.05;;;2.42;;
57593;SDS011;43423;46.510;6.686;2023-03-23T12:48:57;8.63;;;2.80;;
57593;SDS011;43423;46.510;6.686;2023-03-23T12:54:05;7.30;;;2.50;;
57593;SDS011;43423;46.510;6.686;2023-03-23T12:56:54;4.15;;;2.30;;
57593;SDS011;43423;46.510;6.686;2023-03-23T12:59:35;6.40;;;2.58;;
57593;SDS011;43423;46.510;6.686;2023-03-23T13:02:07;6.53;;;2.60;;
57593;SDS011;43423;46.510;6.686;2023-03-23T13:04:43;5.20;;;2.30;;
57593;SDS011;43423;46.510;6.686;2023-03-23T13:07:14;8.25;;;2.53;;
57593;SDS011;43423;46.510;6.686;2023-03-23T13:09:59;7.25;;;2.80;;
57593;SDS011;43423;46.510;6.686;2023-03-23T13:12:30;3.75;;;2.65;;
57593;SDS011;43423;46.510;6.686;2023-03-23T13:15:03;5.55;;;2.97;;
57593;SDS011;43423;46.510;6.686;2023-03-23T13:17:47;6.78;;;3.25;;
57593;SDS011;43423;46.510;6.686;2023-03-23T13:20:39;8.88;;;3.38;;
57593;SDS011;43423;46.510;6.686;2023-03-23T13:33:51;5.55;;;2.80;;
57593;SDS011;43423;46.510;6.686;2023-03-23T13:36:33;6.18;;;2.88;;
57593;SDS011;43423;46.510;6.686;2023-03-23T13:39:18;6.13;;;2.50;;
57593;SDS011;43423;46.510;6.686;2023-03-23T13:41:57;6.45;;;2.75;;
57593;SDS011;43423;46.510;6.686;2023-03-23T13:44:41;10.45;;;3.13;;
57593;SDS011;43423;46.510;6.686;2023-03-23T13:49:50;6.22;;;2.58;;
57593;SDS011;43423;46.510;6.686;2023-03-23T13:52:36;6.55;;;2.95;;
57593;SDS011;43423;46.510;6.686;2023-03-23T14:13:35;4.60;;;2.55;;
57593;SDS011;43423;46.510;6.686;2023-03-23T14:18:47;4.07;;;2.30;;
57593;SDS011;43423;46.510;6.686;2023-03-23T14:21:21;4.15;;;2.80;;
57593;SDS011;43423;46.510;6.686;2023-03-23T14:24:06;6.53;;;2.90;;
57593;SDS011;43423;46.510;6.686;2023-03-23T14:26:36;4.35;;;3.25;;
57593;SDS011;43423;46.510;6.686;2023-03-23T14:29:03;4.70;;;2.60;;
57593;SDS011;43423;46.510;6.686;2023-03-23T14:31:31;5.15;;;2.80;;
57593;SDS011;43423;46.510;6.686;2023-03-23T14:34:00;4.63;;;2.70;;
57593;SDS011;43423;46.510;6.686;2023-03-23T14:36:29;8.95;;;3.25;;
57593;SDS011;43423;46.510;6.686;2023-03-23T14:41:29;9.40;;;3.53;;
57593;SDS011;43423;46.510;6.686;2023-03-23T14:43:56;6.40;;;3.22;;
57593;SDS011;43423;46.510;6.686;2023-03-23T14:46:25;11.35;;;4.18;;
57593;SDS011;43423;46.510;6.686;2023-03-23T14:48:51;7.35;;;3.70;;
57593;SDS011;43423;46.510;6.686;2023-03-23T14:51:18;9.05;;;3.80;;
57593;SDS011;43423;46.510;6.686;2023-03-23T14:53:45;5.20;;;3.28;;
57593;SDS011;43423;46.510;6.686;2023-03-23T14:56:14;13.02;;;4.35;;
57593;SDS011;43423;46.510;6.686;2023-03-23T14:58:47;7.05;;;3.65;;
57593;SDS011;43423;46.510;6.686;2023-03-23T15:01:17;8.50;;;3.55;;
57593;SDS011;43423;46.510;6.686;2023-03-23T15:04:02;7.07;;;3.15;;
57593;SDS011;43423;46.510;6.686;2023-03-23T15:06:33;7.07;;;4.18;;
57593;SDS011;43423;46.510;6.686;2023-03-23T15:09:02;7.50;;;4.20;;
57593;SDS011;43423;46.510;6.686;2023-03-23T15:11:34;9.43;;;3.88;;
57593;SDS011;43423;46.510;6.686;2023-03-23T15:14:06;6.38;;;3.47;;
57593;SDS011;43423;46.510;6.686;2023-03-23T15:16:35;6.53;;;3.85;;
57593;SDS011;43423;46.510;6.686;2023-03-23T15:19:05;11.60;;;3.75;;
57593;SDS011;43423;46.510;6.686;2023-03-23T15:21:46;5.65;;;3.53;;
57593;SDS011;43423;46.510;6.686;2023-03-23T15:24:21;11.98;;;4.00;;
57593;SDS011;43423;46.510;6.686;2023-03-23T15:26:52;9.27;;;4.05;;
57593;SDS011;43423;46.510;6.686;2023-03-23T15:29:19;14.82;;;4.55;;
57593;SDS011;43423;46.510;6.686;2023-03-23T15:31:52;13.65;;;4.80;;
57593;SDS011;43423;46.510;6.686;2023-03-23T15:34:29;14.48;;;5.95;;
57593;SDS011;43423;46.510;6.686;2023-03-23T15:37:06;11.63;;;4.43;;
57593;SDS011;43423;46.510;6.686;2023-03-23T15:39:46;15.88;;;4.90;;
57593;SDS011;43423;46.510;6.686;2023-03-23T15:42:23;7.45;;;4.40;;
57593;SDS011;43423;46.510;6.686;2023-03-23T15:50:18;8.00;;;4.53;;
57593;SDS011;43423;46.510;6.686;2023-03-23T15:52:46;17.67;;;4.72;;
57593;SDS011;43423;46.510;6.686;2023-03-23T15:57:54;9.40;;;4.07;;
57593;SDS011;43423;46.510;6.686;2023-03-23T16:00:22;7.50;;;4.15;;
57593;SDS011;43423;46.510;6.686;2023-03-23T16:02:58;9.80;;;4.63;;
57593;SDS011;43423;46.510;6.686;2023-03-23T16:05:25;6.38;;;3.95;;
57593;SDS011;43423;46.510;6.686;2023-03-23T16:07:52;11.77;;;4.40;;
57593;SDS011;43423;46.510;6.686;2023-03-23T16:10:19;10.82;;;4.47;;
57593;SDS011;43423;46.510;6.686;2023-03-23T16:12:46;12.10;;;4.32;;
57593;SDS011;43423;46.510;6.686;2023-03-23T16:15:12;9.85;;;3.63;;
57593;SDS011;43423;46.510;6.686;2023-03-23T16:17:39;6.40;;;3.60;;
57593;SDS011;43423;46.510;6.686;2023-03-23T16:20:14;8.65;;;3.75;;
57593;SDS011;43423;46.510;6.686;2023-03-23T16:25:11;8.82;;;4.03;;
57593;SDS011;43423;46.510;6.686;2023-03-23T16:27:38;7.35;;;3.42;;
57593;SDS011;43423;46.510;6.686;2023-03-23T16:30:10;8.13;;;3.63;;
57593;SDS011;43423;46.510;6.686;2023-03-23T16:32:37;15.75;;;3.25;;
57593;SDS011;43423;46.510;6.686;2023-03-23T16:35:03;7.82;;;3.78;;
57593;SDS011;43423;46.510;6.686;2023-03-23T16:37:29;10.75;;;3.85;;
57593;SDS011;43423;46.510;6.686;2023-03-23T16:39:57;7.22;;;4.18;;
57593;SDS011;43423;46.510;6.686;2023-03-23T16:42:22;6.57;;;3.30;;
57593;SDS011;43423;46.510;6.686;2023-03-23T16:44:48;7.45;;;3.53;;
57593;SDS011;43423;46.510;6.686;2023-03-23T16:47:15;10.38;;;4.03;;
57593;SDS011;43423;46.510;6.686;2023-03-23T16:49:43;10.95;;;4.57;;
57593;SDS011;43423;46.510;6.686;2023-03-23T16:52:09;12.13;;;4.70;;
57593;SDS011;43423;46.510;6.686;2023-03-23T16:54:35;10.65;;;4.85;;
57593;SDS011;43423;46.510;6.686;2023-03-23T16:57:01;11.15;;;5.07;;
57593;SDS011;43423;46.510;6.686;2023-03-23T16:59:27;17.30;;;5.15;;
57593;SDS011;43423;46.510;6.686;2023-03-23T17:01:52;10.15;;;5.47;;
57593;SDS011;43423;46.510;6.686;2023-03-23T17:04:18;11.70;;;5.32;;
57593;SDS011;43423;46.510;6.686;2023-03-23T17:06:44;12.10;;;4.80;;